createdAt,value
2017-07-12T19:16:58.197Z,50.70
2017-07-12T19:19:25.265Z,50.57
2017-07-12T19:21:52.367Z,50.60
2017-07-12T19:24:19.432Z,50.79
2017-07-12T19:26:46.567Z,50.66
2017-07-12T20:01:40.166Z,51.00
2017-07-12T20:04:07.688Z,53.94
2017-07-12T20:06:35.250Z,51.21
2017-07-12T20:09:02.779Z,51.42
2017-07-12T20:11:30.324Z,52.72
2017-07-12T20:13:57.881Z,48.42
2017-07-12T20:16:25.396Z,51.00
2017-07-12T20:18:52.974Z,51.76
2017-07-12T20:24:05.670Z,50.72
2017-07-12T20:26:33.189Z,51.14
2017-07-12T20:29:00.762Z,52.49
2017-07-12T20:31:28.287Z,52.84
2017-07-12T20:33:55.817Z,52.73
2017-07-12T20:36:23.365Z,52.86
2017-07-12T20:38:53.110Z,52.62
2017-07-12T20:41:20.728Z,53.01
2017-07-12T20:43:48.245Z,53.03
2017-07-12T20:46:15.826Z,52.51
2017-07-12T20:48:43.338Z,52.56
2017-07-12T20:51:10.915Z,53.00
2017-07-12T20:53:38.441Z,53.04
2017-07-12T20:56:05.956Z,53.02
2017-07-12T20:58:33.496Z,53.05
2017-07-12T21:01:01.010Z,53.06
2017-07-12T21:03:28.581Z,53.01
2017-07-12T21:05:56.096Z,53.12
2017-07-12T21:08:23.614Z,53.14
2017-07-12T21:10:51.168Z,52.97
2017-07-12T21:13:18.682Z,53.22
2017-07-12T21:15:46.249Z,53.15
2017-07-12T21:18:13.766Z,53.29
2017-07-12T21:20:41.285Z,53.26
2017-07-12T21:23:08.837Z,53.31
2017-07-12T21:25:36.346Z,53.62
2017-07-12T21:28:03.926Z,53.39
2017-07-12T21:30:31.448Z,53.38
2017-07-12T21:32:58.956Z,53.11
2017-07-12T21:35:26.501Z,52.55
2017-07-12T21:37:54.016Z,52.47
2017-07-12T21:40:21.590Z,52.74
2017-07-12T21:42:49.111Z,52.61
2017-07-12T21:45:16.634Z,52.47
2017-07-12T21:47:44.196Z,52.31
2017-07-12T21:50:11.716Z,52.25
2017-07-12T21:52:39.297Z,52.16
2017-07-12T21:55:24.186Z,52.13
2017-07-12T21:58:08.935Z,51.95
2017-07-12T22:00:53.743Z,51.86
2017-07-12T22:03:38.540Z,51.71
2017-07-12T22:06:23.449Z,51.60
2017-07-12T22:09:08.337Z,51.42
2017-07-12T22:11:53.233Z,51.36
2017-07-12T22:14:38.039Z,51.34
2017-07-12T22:17:22.911Z,51.09
2017-07-12T22:20:07.760Z,51.06
2017-07-12T22:22:52.547Z,51.02
2017-07-12T22:25:37.521Z,50.94
2017-07-12T22:28:22.303Z,50.75
2017-07-12T22:31:07.156Z,50.64
2017-07-12T22:33:52.056Z,50.68
2017-07-12T22:36:36.964Z,50.61
2017-07-12T22:39:09.995Z,50.48
2017-07-12T22:41:43.151Z,50.50
2017-07-12T22:44:10.118Z,50.28
2017-07-12T22:46:37.632Z,50.28
2017-07-12T22:49:05.178Z,50.22
2017-07-12T22:51:32.689Z,50.10
2017-07-12T22:54:00.243Z,50.12
2017-07-12T22:56:27.762Z,50.16
2017-07-12T22:58:55.277Z,50.11
2017-07-12T23:01:22.843Z,50.14
2017-07-12T23:03:50.360Z,50.05
2017-07-12T23:06:17.873Z,50.02
2017-07-12T23:08:45.422Z,50.03
2017-07-12T23:11:12.941Z,49.89
2017-07-12T23:13:40.492Z,49.84
2017-07-12T23:16:08.132Z,49.72
2017-07-12T23:18:35.648Z,49.72
2017-07-12T23:21:03.213Z,49.68
2017-07-12T23:23:30.788Z,49.48
2017-07-12T23:25:58.356Z,49.66
2017-07-12T23:28:25.875Z,49.64
2017-07-12T23:30:53.401Z,49.60
2017-07-12T23:33:20.953Z,49.46
2017-07-12T23:35:48.464Z,49.55
2017-07-12T23:38:16.042Z,49.55
2017-07-12T23:40:43.552Z,49.60
2017-07-12T23:43:11.074Z,49.44
2017-07-12T23:45:38.622Z,49.06
2017-07-12T23:48:06.145Z,49.46
2017-07-12T23:50:33.695Z,49.34
2017-07-12T23:53:01.207Z,49.14
2017-07-12T23:55:28.734Z,49.26
2017-07-12T23:57:56.294Z,49.38
